Nassau/Lynden Pindling International Airport


MYNN 270500Z 22011KT 9999 -SHRA SCT018 BKN040 OVC080 24/22 A3000


TAF MYNN 270430Z 2706/2806 24008KT 7000 SHRA FEW015 BKN060 OVC100 BECMG 2712/2714 28012KT FM271800 34018G28KT 9999 BKN040 BKN100

 

Freeport/Grand Bahama International Airport


MYGF 270000Z 23015KT 9999 FEW015CB BKN060 BKN250 25/23 2994


TAF MYGF 270430Z 2706/2806 24016G26KT 8000 SHRA FEW015CB BKN060 OVC100 FM271200 33021G31KT 9999 BKN040 BKN100 BECMG 2800/2802 33012KT

 

Providenciales International Airport


MBPV 262300Z 15005KT 9999 FEW012 24/19 Q1014


TAF MBPV 270430Z 2706/2806 13006KT 9999 SCT020 FM 280000 VRB02KT 9999 SCT016 BKN060 PROB30 2800/2803 SHRA

Close Menu